Time;durP1;ratioP1;P1;durP2;ratioP2;P2;SDS_P1;SDS_P2;PMS_P1;PMS_P2;Temp;Humidity;BMP_temperature;BMP_pressure;BME280_temperature;BME280_humidity;BME280_pressure;Samples;Min_cycle;Max_cycle;Signal;HPM_P1;HPM_P2
2022/11/29 00:00:00;;;;;;;20.53;12.03;;;5.90;99.90;;;;;;5026987;28;20605;-81
2022/11/29 00:02:26;;;;;;;23.30;11.63;;;5.90;99.90;;;;;;5037712;28;20669;-81
2022/11/29 00:04:53;;;;;;;18.93;11.27;;;5.90;99.90;;;;;;5036980;28;20286;-81
2022/11/29 00:07:20;;;;;;;23.67;12.30;;;5.90;99.90;;;;;;5038266;28;20367;-81
2022/11/29 00:09:47;;;;;;;20.40;12.17;;;5.90;99.90;;;;;;5033800;28;20230;-80
2022/11/29 00:12:13;;;;;;;22.63;12.60;;;5.90;99.90;;;;;;5031614;28;20218;-80
2022/11/29 00:14:42;;;;;;;21.10;12.00;;;5.90;99.90;;;;;;5038896;28;20235;-80
2022/11/29 00:17:09;;;;;;;19.77;11.33;;;5.90;99.90;;;;;;5022522;28;20236;-81
2022/11/29 00:19:37;;;;;;;21.47;12.00;;;5.90;99.90;;;;;;5030549;28;20575;-81
2022/11/29 00:22:04;;;;;;;23.60;12.23;;;5.80;99.90;;;;;;5038077;28;20286;-81
2022/11/29 00:24:32;;;;;;;22.97;12.30;;;5.90;99.90;;;;;;5040666;28;20222;-81
2022/11/29 00:26:59;;;;;;;22.30;11.97;;;5.80;99.90;;;;;;5032766;28;21358;-81
2022/11/29 00:29:27;;;;;;;20.77;11.90;;;5.80;99.90;;;;;;5039891;28;20740;-81
2022/11/29 00:31:56;;;;;;;22.73;11.80;;;5.80;99.90;;;;;;5041840;28;20678;-81
2022/11/29 00:34:22;;;;;;;20.87;12.03;;;5.80;99.90;;;;;;5027414;28;20660;-81
2022/11/29 00:36:49;;;;;;;19.60;11.20;;;5.80;99.90;;;;;;5038761;28;20208;-81
2022/11/29 00:39:16;;;;;;;21.77;12.60;;;5.80;99.90;;;;;;5042378;28;20232;-80
2022/11/29 00:41:43;;;;;;;21.03;12.13;;;5.80;99.90;;;;;;5042354;28;20227;-81
2022/11/29 00:44:10;;;;;;;21.67;12.17;;;5.70;99.90;;;;;;5030221;28;20287;-81
2022/11/29 00:46:37;;;;;;;23.33;12.37;;;5.70;99.90;;;;;;5030909;28;20210;-81
2022/11/29 00:49:06;;;;;;;20.33;11.30;;;5.70;99.90;;;;;;5040057;28;20274;-80
2022/11/29 00:51:33;;;;;;;23.10;12.30;;;5.70;99.90;;;;;;5041502;28;20196;-81
2022/11/29 00:53:59;;;;;;;23.10;12.37;;;5.80;99.90;;;;;;5036209;28;20289;-81
2022/11/29 00:56:26;;;;;;;21.93;12.23;;;5.70;99.90;;;;;;5042228;28;20208;-81
2022/11/29 00:58:53;;;;;;;21.10;11.40;;;5.70;99.90;;;;;;5040678;28;20761;-81
2022/11/29 01:01:20;;;;;;;21.13;11.83;;;5.70;99.90;;;;;;5034839;28;20234;-81
2022/11/29 01:03:47;;;;;;;20.27;12.03;;;5.70;99.90;;;;;;5032147;28;20200;-81
2022/11/29 01:06:16;;;;;;;20.37;11.33;;;5.70;99.90;;;;;;5039180;28;20199;-80
2022/11/29 01:08:44;;;;;;;21.93;11.43;;;5.70;99.90;;;;;;5028894;28;20228;-81
2022/11/29 01:11:15;;;;;;;19.27;11.97;;;5.70;99.90;;;;;;5031703;28;20215;-81
2022/11/29 01:13:43;;;;;;;21.50;11.70;;;5.70;99.90;;;;;;5033530;28;20212;-81
2022/11/29 01:16:10;;;;;;;19.83;11.90;;;5.70;99.90;;;;;;5028666;28;20200;-81
2022/11/29 01:18:38;;;;;;;22.43;12.53;;;5.60;99.90;;;;;;5038157;28;20705;-81
2022/11/29 01:21:07;;;;;;;20.73;11.17;;;5.70;99.90;;;;;;5025522;28;20264;-81
2022/11/29 01:23:35;;;;;;;19.30;11.77;;;5.60;99.90;;;;;;5035728;28;20201;-81
2022/11/29 01:26:05;;;;;;;20.27;11.97;;;5.60;99.90;;;;;;5035586;28;20220;-81
2022/11/29 01:28:32;;;;;;;23.67;12.70;;;5.60;99.90;;;;;;5036834;28;20226;-81
2022/11/29 01:30:59;;;;;;;21.77;12.60;;;5.60;99.90;;;;;;5037001;28;20210;-81
2022/11/29 01:33:26;;;;;;;21.57;11.57;;;5.60;99.90;;;;;;5029776;28;20204;-81
2022/11/29 01:35:54;;;;;;;18.90;11.73;;;5.60;99.90;;;;;;5032774;28;20208;-81
2022/11/29 01:38:22;;;;;;;19.10;11.30;;;5.60;99.90;;;;;;5030228;28;20802;-81
2022/11/29 01:41:02;;;;;;;20.47;11.60;;;5.60;99.90;;;;;;5029627;28;20223;-81
2022/11/29 01:43:29;;;;;;;20.23;12.00;;;5.60;99.90;;;;;;5027411;28;20219;-81
2022/11/29 01:45:56;;;;;;;22.67;12.37;;;5.60;99.90;;;;;;5028618;28;20215;-81
2022/11/29 01:48:26;;;;;;;21.03;11.87;;;5.70;99.90;;;;;;5027366;28;20225;-81
2022/11/29 01:50:55;;;;;;;22.57;12.13;;;5.60;99.90;;;;;;5030552;28;20210;-81
2022/11/29 01:53:21;;;;;;;20.13;12.50;;;5.60;99.90;;;;;;5034225;28;20859;-81
2022/11/29 01:55:52;;;;;;;20.83;12.70;;;5.60;99.90;;;;;;5036113;28;20566;-81
2022/11/29 01:58:20;;;;;;;21.63;12.60;;;5.50;99.90;;;;;;5034242;28;20220;-81
2022/11/29 02:00:48;;;;;;;24.50;13.80;;;5.60;99.90;;;;;;5035672;28;20724;-81
2022/11/29 02:03:18;;;;;;;22.30;12.37;;;5.60;99.90;;;;;;5033779;28;20224;-81
2022/11/29 02:05:47;;;;;;;23.13;12.40;;;5.50;99.90;;;;;;5024137;28;20266;-81
2022/11/29 02:08:20;;;;;;;22.20;12.27;;;5.50;99.90;;;;;;5030431;28;20227;-81
2022/11/29 02:10:59;;;;;;;18.50;11.47;;;5.50;99.90;;;;;;5034451;28;20203;-80
2022/11/29 02:13:37;;;;;;;22.20;12.40;;;5.50;99.90;;;;;;5029141;28;20645;-80
2022/11/29 02:16:10;;;;;;;21.63;12.30;;;5.40;99.90;;;;;;5024064;28;20210;-81
2022/11/29 02:18:47;;;;;;;23.27;12.33;;;5.40;99.90;;;;;;5036973;28;20227;-81
2022/11/29 02:21:31;;;;;;;21.47;12.83;;;5.40;99.90;;;;;;5036209;28;21537;-81
2022/11/29 02:24:35;;;;;;;18.50;10.60;;;5.40;99.90;;;;;;5035531;28;20196;-81
2022/11/29 02:27:22;;;;;;;22.07;11.87;;;5.40;99.90;;;;;;5027698;28;20207;-81
2022/11/29 02:30:16;;;;;;;19.00;12.00;;;5.40;99.90;;;;;;5033677;28;20922;-81
2022/11/29 02:33:19;;;;;;;18.43;10.73;;;5.40;99.90;;;;;;5033097;28;20196;-81
2022/11/29 02:36:11;;;;;;;20.90;11.67;;;5.40;99.90;;;;;;5028620;28;20203;-81
2022/11/29 02:39:02;;;;;;;19.53;11.37;;;5.50;99.90;;;;;;5032191;28;20219;-81
2022/11/29 02:41:45;;;;;;;21.77;11.83;;;5.40;99.90;;;;;;5036496;28;20208;-81
2022/11/29 02:44:36;;;;;;;21.77;12.67;;;5.40;99.90;;;;;;5033887;28;20207;-81
2022/11/29 02:47:15;;;;;;;20.83;10.83;;;5.30;99.90;;;;;;5029104;28;20203;-81
2022/11/29 02:50:00;;;;;;;20.87;11.53;;;5.30;99.90;;;;;;5034828;28;20227;-81
2022/11/29 02:52:37;;;;;;;18.93;11.33;;;5.30;99.90;;;;;;5025626;28;20207;-81
2022/11/29 02:55:09;;;;;;;21.40;12.00;;;5.30;99.90;;;;;;5027549;28;20196;-81
2022/11/29 02:57:43;;;;;;;21.43;12.13;;;5.30;99.90;;;;;;5038032;28;20200;-81
2022/11/29 03:00:14;;;;;;;20.17;11.17;;;5.40;99.90;;;;;;5026873;28;20222;-81
2022/11/29 03:02:49;;;;;;;22.97;12.97;;;5.40;99.90;;;;;;5033139;28;20229;-81
2022/11/29 03:05:23;;;;;;;19.77;11.77;;;5.40;99.90;;;;;;5036930;28;20301;-81
2022/11/29 03:07:59;;;;;;;21.50;12.60;;;5.40;99.90;;;;;;5032500;28;20206;-81
2022/11/29 03:10:34;;;;;;;20.20;12.13;;;5.40;99.90;;;;;;5032609;28;20278;-81
2022/11/29 03:13:05;;;;;;;20.50;12.00;;;5.40;99.90;;;;;;5029633;28;20206;-81
2022/11/29 03:15:41;;;;;;;19.03;11.33;;;5.40;99.90;;;;;;5029114;28;20199;-81
2022/11/29 03:18:27;;;;;;;21.40;11.83;;;5.40;99.90;;;;;;5038697;28;20219;-81
2022/11/29 03:21:05;;;;;;;19.60;11.80;;;5.40;99.90;;;;;;5026437;28;20204;-81
2022/11/29 03:23:37;;;;;;;20.70;11.57;;;5.30;99.90;;;;;;5033483;28;20223;-81
2022/11/29 03:26:08;;;;;;;21.93;12.00;;;5.30;99.90;;;;;;5030218;28;20192;-81
2022/11/29 03:28:41;;;;;;;20.37;12.77;;;5.30;99.90;;;;;;5037322;28;20219;-80
2022/11/29 03:31:14;;;;;;;20.33;11.80;;;5.40;99.90;;;;;;5029583;28;20217;-81
2022/11/29 03:33:50;;;;;;;19.37;11.33;;;5.30;99.90;;;;;;5034292;28;20255;-81
2022/11/29 03:36:25;;;;;;;24.00;11.97;;;5.40;99.90;;;;;;5039041;28;20210;-80
2022/11/29 03:38:57;;;;;;;22.60;12.00;;;5.30;99.90;;;;;;5033588;28;20313;-81
2022/11/29 03:41:32;;;;;;;20.43;10.93;;;5.30;99.90;;;;;;5025980;28;20199;-81
2022/11/29 03:44:03;;;;;;;22.07;11.97;;;5.30;99.90;;;;;;5033690;28;20698;-81
2022/11/29 03:46:37;;;;;;;20.03;11.33;;;5.30;99.90;;;;;;5027626;28;20211;-80
2022/11/29 03:49:09;;;;;;;20.07;11.70;;;5.30;99.90;;;;;;5030051;28;20223;-81
2022/11/29 03:51:50;;;;;;;24.23;12.20;;;5.30;99.90;;;;;;5031668;28;20299;-80
2022/11/29 03:54:24;;;;;;;20.97;12.03;;;5.30;99.90;;;;;;5034225;28;20434;-81
2022/11/29 03:56:51;;;;;;;21.17;11.80;;;5.30;99.90;;;;;;5028521;28;20426;-81
2022/11/29 03:59:40;;;;;;;19.73;12.43;;;5.30;99.90;;;;;;5030421;28;20223;-81
2022/11/29 04:02:46;;;;;;;20.93;12.03;;;5.40;99.90;;;;;;5026617;28;20219;-80
2022/11/29 04:05:40;;;;;;;23.20;12.83;;;5.30;99.90;;;;;;5019531;28;20209;-80
2022/11/29 04:08:39;;;;;;;20.33;12.07;;;5.30;99.90;;;;;;5029936;28;20249;-80
2022/11/29 04:11:53;;;;;;;23.97;12.73;;;5.30;99.90;;;;;;5034052;28;20340;-81
2022/11/29 04:15:02;;;;;;;21.00;11.63;;;5.40;99.90;;;;;;5020938;28;20229;-81
2022/11/29 04:17:47;;;;;;;21.23;11.47;;;5.40;99.90;;;;;;4960484;28;20209;-80
2022/11/29 04:20:48;;;;;;;22.30;11.97;;;5.40;99.90;;;;;;5038525;28;20218;-81
2022/11/29 04:23:46;;;;;;;22.83;11.43;;;5.40;99.90;;;;;;5031713;28;20781;-80
2022/11/29 04:26:53;;;;;;;22.23;12.80;;;5.50;99.90;;;;;;5027884;28;20210;-80
2022/11/29 04:29:55;;;;;;;20.23;12.07;;;5.40;99.90;;;;;;5033883;28;20219;-81
2022/11/29 04:33:12;;;;;;;20.07;11.80;;;5.40;99.90;;;;;;5017268;28;20443;-81
2022/11/29 04:35:55;;;;;;;19.37;11.50;;;5.40;99.90;;;;;;5030662;28;20230;-80
2022/11/29 04:38:48;;;;;;;23.10;12.27;;;5.40;99.90;;;;;;5037845;28;21000;-80
2022/11/29 04:41:46;;;;;;;23.27;12.40;;;5.40;99.90;;;;;;5036591;28;20626;-80
2022/11/29 04:44:44;;;;;;;23.83;13.23;;;5.40;99.90;;;;;;5033207;28;20827;-80
2022/11/29 04:47:38;;;;;;;23.00;12.43;;;5.40;99.90;;;;;;5032397;28;20239;-80
2022/11/29 04:50:32;;;;;;;24.23;13.07;;;5.40;99.90;;;;;;5026813;28;20768;-80
2022/11/29 04:53:24;;;;;;;22.73;12.50;;;5.50;99.90;;;;;;5025115;28;20576;-80
2022/11/29 04:55:58;;;;;;;22.27;12.40;;;5.50;99.90;;;;;;5023271;28;20210;-80
2022/11/29 04:58:31;;;;;;;25.90;14.13;;;5.50;99.90;;;;;;5029717;28;20609;-80
2022/11/29 05:01:05;;;;;;;23.43;12.43;;;5.50;99.90;;;;;;5028323;28;20212;-80
2022/11/29 05:03:38;;;;;;;23.07;13.67;;;5.50;99.90;;;;;;5028080;28;20227;-80
2022/11/29 05:06:19;;;;;;;22.93;12.73;;;5.50;99.90;;;;;;5034569;28;20477;-80
2022/11/29 05:08:52;;;;;;;25.13;13.60;;;5.60;99.90;;;;;;5033865;28;20220;-80
2022/11/29 05:11:26;;;;;;;23.43;12.93;;;5.50;99.90;;;;;;5034745;28;20577;-80
2022/11/29 05:14:02;;;;;;;21.50;12.93;;;5.50;99.90;;;;;;5041020;28;20195;-80
2022/11/29 05:16:47;;;;;;;23.80;12.83;;;5.50;99.90;;;;;;5037129;28;20226;-80
2022/11/29 05:19:29;;;;;;;22.77;12.60;;;5.50;99.90;;;;;;5035365;28;20229;-80
2022/11/29 05:22:09;;;;;;;22.27;13.17;;;5.50;99.90;;;;;;5038762;28;20227;-80
2022/11/29 05:24:49;;;;;;;24.30;12.83;;;5.50;99.90;;;;;;5032902;28;20199;-81
2022/11/29 05:27:23;;;;;;;22.50;13.13;;;5.40;99.90;;;;;;5033540;28;20200;-80
2022/11/29 05:29:58;;;;;;;20.33;11.90;;;5.40;99.90;;;;;;5030835;28;20313;-80
2022/11/29 05:32:31;;;;;;;21.70;11.90;;;5.50;99.90;;;;;;5042398;28;20286;-80
2022/11/29 05:35:30;;;;;;;21.00;11.80;;;5.50;99.90;;;;;;5032644;28;20242;-80
2022/11/29 05:38:07;;;;;;;22.73;12.23;;;5.50;99.90;;;;;;5039572;28;20214;-80
2022/11/29 05:40:44;;;;;;;20.63;11.40;;;5.50;99.90;;;;;;5031547;28;20207;-80
2022/11/29 05:43:24;;;;;;;23.83;12.53;;;5.50;99.90;;;;;;5034913;28;20212;-80
2022/11/29 05:45:57;;;;;;;21.53;12.07;;;5.50;99.90;;;;;;5037292;28;20206;-80
2022/11/29 05:48:29;;;;;;;22.93;12.57;;;5.50;99.90;;;;;;5030215;28;20692;-80
2022/11/29 05:51:12;;;;;;;23.30;13.47;;;5.50;99.90;;;;;;5034536;28;20349;-81
2022/11/29 05:53:48;;;;;;;24.33;13.23;;;5.50;99.90;;;;;;5033898;28;20206;-80
2022/11/29 05:56:26;;;;;;;20.90;11.67;;;5.50;99.90;;;;;;5033670;28;20580;-80
2022/11/29 05:58:58;;;;;;;23.03;12.40;;;5.50;99.90;;;;;;5030650;28;20227;-80
2022/11/29 06:01:28;;;;;;;20.47;11.87;;;5.50;99.90;;;;;;5035036;28;20238;-80
2022/11/29 06:04:02;;;;;;;20.00;11.63;;;5.50;99.90;;;;;;5027347;28;20767;-81
2022/11/29 06:06:38;;;;;;;23.13;12.67;;;5.50;99.90;;;;;;5030758;28;20204;-80
2022/11/29 06:09:13;;;;;;;23.03;12.33;;;5.50;99.90;;;;;;5035214;28;20232;-80
2022/11/29 06:11:44;;;;;;;22.67;12.43;;;5.60;99.90;;;;;;5041134;28;20286;-80
2022/11/29 06:14:24;;;;;;;21.13;13.00;;;5.60;99.90;;;;;;5041063;28;20195;-80
2022/11/29 06:17:15;;;;;;;21.20;12.30;;;5.70;99.90;;;;;;5037744;28;20644;-80
2022/11/29 06:19:58;;;;;;;22.03;12.20;;;5.50;99.90;;;;;;5034005;28;20237;-80
2022/11/29 06:23:03;;;;;;;22.63;12.63;;;5.60;99.90;;;;;;5029234;28;20207;-80
2022/11/29 06:25:48;;;;;;;22.67;12.20;;;5.60;99.90;;;;;;4974556;28;20293;-80
2022/11/29 06:28:32;;;;;;;22.90;11.90;;;5.60;99.90;;;;;;5015697;28;20224;-80
2022/11/29 06:31:05;;;;;;;22.50;13.20;;;5.60;99.90;;;;;;5024357;28;20212;-80
2022/11/29 06:33:41;;;;;;;21.93;12.27;;;5.60;99.90;;;;;;5028969;28;20200;-80
2022/11/29 06:36:17;;;;;;;21.17;11.77;;;5.60;99.90;;;;;;5037558;28;20200;-80
2022/11/29 06:38:45;;;;;;;22.93;12.50;;;5.60;99.90;;;;;;5035704;28;20589;-80
2022/11/29 06:41:20;;;;;;;25.40;14.03;;;5.60;99.90;;;;;;5035632;28;20475;-80
2022/11/29 06:43:47;;;;;;;24.50;13.43;;;5.60;99.90;;;;;;5030491;28;20233;-80
2022/11/29 06:46:23;;;;;;;24.67;13.20;;;5.60;99.90;;;;;;5033374;28;20326;-80
2022/11/29 06:48:53;;;;;;;25.40;13.57;;;5.60;99.90;;;;;;5026895;28;20231;-80
2022/11/29 06:51:28;;;;;;;22.67;13.00;;;5.60;99.90;;;;;;5033314;28;20580;-80
2022/11/29 06:54:03;;;;;;;25.90;12.37;;;5.60;99.90;;;;;;5026514;28;20196;-80
2022/11/29 06:56:38;;;;;;;21.90;12.23;;;5.60;99.90;;;;;;5028372;28;20211;-80
2022/11/29 06:59:12;;;;;;;25.33;12.90;;;5.60;99.90;;;;;;5032839;28;20230;-80
2022/11/29 07:01:45;;;;;;;23.77;12.70;;;5.60;99.90;;;;;;5031690;28;20203;-80
2022/11/29 07:04:25;;;;;;;22.80;13.90;;;5.60;99.90;;;;;;5031003;28;20205;-80
2022/11/29 07:06:52;;;;;;;23.43;12.87;;;5.60;99.90;;;;;;5034357;28;20198;-80
2022/11/29 07:09:21;;;;;;;26.70;13.43;;;5.60;99.90;;;;;;5031033;28;20223;-80
2022/11/29 07:11:50;;;;;;;24.63;13.97;;;5.60;99.90;;;;;;5034255;28;20210;-80
2022/11/29 07:14:17;;;;;;;24.43;13.50;;;5.70;99.90;;;;;;5038300;28;20199;-80
2022/11/29 07:16:51;;;;;;;26.70;14.37;;;5.70;99.90;;;;;;5037755;28;20204;-81
2022/11/29 07:19:26;;;;;;;24.20;13.27;;;5.70;99.90;;;;;;5030817;28;20315;-81
2022/11/29 07:22:00;;;;;;;24.47;12.80;;;5.70;99.90;;;;;;5038705;28;20213;-80
2022/11/29 07:24:47;;;;;;;24.63;14.03;;;5.70;99.90;;;;;;5039793;28;20227;-80
2022/11/29 07:27:20;;;;;;;24.83;12.80;;;5.70;99.90;;;;;;5038543;28;20199;-80
2022/11/29 07:30:01;;;;;;;25.57;13.57;;;5.70;99.90;;;;;;5038607;28;20846;-81
2022/11/29 07:32:37;;;;;;;24.07;12.50;;;5.70;99.90;;;;;;5033232;28;20572;-81
2022/11/29 07:35:10;;;;;;;25.20;13.07;;;5.70;99.90;;;;;;5033014;28;20199;-81
2022/11/29 07:37:47;;;;;;;25.20;13.67;;;5.80;99.90;;;;;;5034101;28;20218;-80
2022/11/29 07:40:18;;;;;;;22.97;12.80;;;5.80;99.90;;;;;;5028748;28;20199;-80
2022/11/29 07:42:57;;;;;;;24.17;12.43;;;5.70;99.90;;;;;;5029890;28;20212;-80
2022/11/29 07:45:27;;;;;;;24.57;13.60;;;5.80;99.90;;;;;;5035294;28;20722;-80
2022/11/29 07:47:55;;;;;;;21.63;12.70;;;5.80;99.90;;;;;;5032509;28;20242;-80
2022/11/29 07:50:22;;;;;;;24.37;13.67;;;5.80;99.90;;;;;;5032606;28;20378;-80
2022/11/29 07:52:49;;;;;;;25.43;13.70;;;5.80;99.90;;;;;;5036257;28;20214;-81
2022/11/29 07:55:19;;;;;;;23.23;13.53;;;5.80;99.90;;;;;;5032460;28;20212;-80
2022/11/29 07:57:46;;;;;;;22.27;12.73;;;5.80;99.90;;;;;;5031789;28;20214;-81
2022/11/29 08:00:15;;;;;;;22.83;13.20;;;5.80;99.90;;;;;;5034622;28;20203;-81
2022/11/29 08:02:43;;;;;;;22.37;12.83;;;5.80;99.90;;;;;;5035013;28;20319;-81
2022/11/29 08:05:10;;;;;;;22.57;12.60;;;5.90;99.90;;;;;;5031507;28;20223;-80
2022/11/29 08:07:39;;;;;;;21.17;13.07;;;5.90;99.90;;;;;;5032426;28;20271;-81
2022/11/29 08:10:08;;;;;;;23.27;13.93;;;6.00;99.90;;;;;;5030694;28;20225;-81
2022/11/29 08:12:35;;;;;;;23.57;12.97;;;6.00;99.90;;;;;;5033313;28;20263;-81
2022/11/29 08:15:02;;;;;;;23.03;12.97;;;6.00;99.90;;;;;;5036530;28;20208;-81
2022/11/29 08:17:30;;;;;;;21.73;12.73;;;6.00;99.90;;;;;;5036450;28;20218;-80
2022/11/29 08:19:57;;;;;;;24.23;13.67;;;6.00;99.90;;;;;;5036469;28;20291;-80
2022/11/29 08:22:24;;;;;;;22.63;12.57;;;6.10;99.90;;;;;;5036117;28;20215;-80
2022/11/29 08:24:50;;;;;;;23.70;13.40;;;6.10;99.90;;;;;;5032623;28;20228;-81
2022/11/29 08:27:17;;;;;;;22.93;12.87;;;6.10;99.90;;;;;;5033073;28;20342;-80
2022/11/29 08:29:44;;;;;;;24.97;13.73;;;6.10;99.90;;;;;;5026459;28;20227;-81
2022/11/29 08:32:11;;;;;;;25.63;14.57;;;6.10;99.90;;;;;;5030320;28;20206;-81
2022/11/29 08:34:39;;;;;;;28.20;15.67;;;6.10;99.90;;;;;;5035695;28;20434;-80
2022/11/29 08:37:06;;;;;;;23.30;13.87;;;6.10;99.90;;;;;;5036018;28;20206;-80
2022/11/29 08:39:32;;;;;;;23.13;13.50;;;6.20;99.90;;;;;;5037239;28;20302;-81
2022/11/29 08:41:59;;;;;;;26.47;14.10;;;6.10;99.90;;;;;;5037567;28;20862;-80
2022/11/29 08:44:26;;;;;;;26.07;13.53;;;6.10;99.90;;;;;;5041514;28;20215;-80
2022/11/29 08:49:59;;;;;;;23.40;13.90;;;6.10;99.90;;;;;;5038191;28;20350;-81
2022/11/29 08:55:09;;;;;;;23.17;14.37;;;6.10;99.90;;;;;;5038136;28;20218;-80
2022/11/29 08:57:36;;;;;;;25.47;14.00;;;6.10;99.90;;;;;;5037316;28;20200;-81
2022/11/29 09:00:05;;;;;;;25.50;14.47;;;6.10;99.90;;;;;;5039831;28;20322;-80
2022/11/29 09:02:32;;;;;;;24.90;13.40;;;6.10;99.90;;;;;;5040683;28;20782;-80
2022/11/29 09:05:00;;;;;;;24.40;14.40;;;6.10;99.90;;;;;;5040033;28;20215;-80
2022/11/29 09:07:27;;;;;;;25.40;14.50;;;6.10;99.90;;;;;;5036825;28;20203;-81
2022/11/29 09:09:54;;;;;;;25.17;13.57;;;6.10;99.90;;;;;;5038202;28;20224;-80
2022/11/29 09:12:21;;;;;;;24.80;14.43;;;6.10;99.90;;;;;;5036870;28;20566;-81
2022/11/29 09:14:47;;;;;;;24.67;13.37;;;6.10;99.90;;;;;;5040910;28;20199;-80
2022/11/29 09:17:14;;;;;;;25.50;12.70;;;6.10;99.90;;;;;;5039203;28;20211;-80
2022/11/29 09:19:41;;;;;;;24.20;14.00;;;6.20;99.90;;;;;;5038939;28;20234;-80
2022/11/29 09:22:09;;;;;;;25.37;14.17;;;6.10;99.90;;;;;;5036066;28;20604;-81
2022/11/29 09:24:36;;;;;;;25.97;15.27;;;6.10;99.90;;;;;;5040276;28;20239;-81
2022/11/29 09:27:03;;;;;;;24.63;14.83;;;6.20;99.90;;;;;;5037368;28;20203;-81
2022/11/29 09:29:30;;;;;;;26.97;15.37;;;6.20;99.90;;;;;;5040532;28;20269;-80
2022/11/29 09:31:56;;;;;;;26.83;15.40;;;6.10;99.90;;;;;;5036890;28;20604;-80
2022/11/29 09:34:23;;;;;;;25.43;14.80;;;6.20;99.90;;;;;;5038200;28;20283;-80
2022/11/29 09:36:50;;;;;;;26.77;15.30;;;6.20;99.90;;;;;;5035003;28;20299;-81
2022/11/29 09:39:18;;;;;;;26.47;15.50;;;6.20;99.90;;;;;;5033299;28;20473;-81
2022/11/29 09:42:10;;;;;;;30.13;16.80;;;6.20;99.90;;;;;;5033206;28;20199;-81
2022/11/29 09:44:48;;;;;;;27.03;15.60;;;6.20;99.90;;;;;;5034200;28;20218;-81
2022/11/29 09:47:30;;;;;;;27.00;15.63;;;6.20;99.90;;;;;;5035636;28;20202;-81
2022/11/29 09:50:12;;;;;;;28.63;16.57;;;6.20;99.90;;;;;;5033369;28;20216;-81
2022/11/29 09:52:50;;;;;;;29.30;16.93;;;6.20;99.90;;;;;;5034904;28;20279;-81
2022/11/29 09:55:38;;;;;;;30.47;17.57;;;6.20;99.90;;;;;;5035496;28;20200;-81
2022/11/29 09:58:09;;;;;;;31.70;17.93;;;6.20;99.90;;;;;;5034211;28;20318;-82
2022/11/29 10:00:42;;;;;;;32.50;18.90;;;6.20;99.90;;;;;;5043229;28;20223;-81
2022/11/29 10:03:17;;;;;;;33.33;18.53;;;6.30;99.90;;;;;;5036674;28;20552;-81
2022/11/29 10:05:49;;;;;;;33.33;18.93;;;6.30;99.90;;;;;;5039667;28;20210;-81
2022/11/29 10:08:24;;;;;;;33.73;19.17;;;6.30;99.90;;;;;;5038819;28;20314;-80
2022/11/29 10:10:56;;;;;;;34.10;19.00;;;6.30;99.90;;;;;;5035231;28;20364;-80
2022/11/29 10:13:25;;;;;;;28.57;17.53;;;6.30;99.90;;;;;;5032485;28;20208;-81
2022/11/29 10:15:55;;;;;;;32.70;18.60;;;6.30;99.90;;;;;;5034800;28;20221;-81
2022/11/29 10:18:27;;;;;;;37.60;19.23;;;6.30;99.90;;;;;;5035711;28;20231;-81
2022/11/29 10:20:57;;;;;;;33.23;19.40;;;6.30;99.90;;;;;;5033001;28;20214;-81
2022/11/29 10:23:31;;;;;;;33.17;19.40;;;6.30;99.90;;;;;;5034483;28;20579;-81
2022/11/29 10:25:59;;;;;;;31.77;19.70;;;6.30;99.90;;;;;;5035631;28;20200;-82
2022/11/29 10:28:29;;;;;;;34.17;19.87;;;6.40;99.90;;;;;;5032365;28;20223;-81
2022/11/29 10:31:02;;;;;;;31.73;18.73;;;6.40;99.90;;;;;;5030329;28;20672;-82
2022/11/29 10:33:32;;;;;;;32.77;19.13;;;6.40;99.90;;;;;;5034562;28;21205;-82
2022/11/29 10:36:03;;;;;;;34.30;19.73;;;6.30;99.90;;;;;;5034132;28;20212;-82
2022/11/29 10:38:30;;;;;;;32.03;19.20;;;6.40;99.90;;;;;;5034322;28;20246;-82
2022/11/29 10:41:04;;;;;;;31.10;18.67;;;6.50;99.90;;;;;;5034247;28;20200;-81
2022/11/29 10:43:31;;;;;;;29.23;18.37;;;6.60;99.90;;;;;;5035014;28;20203;-81
2022/11/29 10:45:58;;;;;;;32.77;19.37;;;6.60;99.90;;;;;;5033242;28;20590;-81
2022/11/29 10:48:30;;;;;;;34.37;18.90;;;6.60;99.90;;;;;;5037577;28;20852;-80
2022/11/29 10:50:57;;;;;;;33.13;19.17;;;6.60;99.90;;;;;;5036380;28;20688;-81
2022/11/29 10:53:26;;;;;;;32.07;18.60;;;6.70;99.90;;;;;;5033250;28;20202;-81
2022/11/29 10:55:58;;;;;;;34.83;20.50;;;6.70;99.90;;;;;;5037479;28;20206;-80
2022/11/29 10:58:28;;;;;;;32.30;20.77;;;6.70;99.90;;;;;;5034458;28;20226;-81
2022/11/29 11:00:58;;;;;;;34.40;19.67;;;6.80;99.90;;;;;;5033487;28;20218;-80
2022/11/29 11:03:29;;;;;;;31.33;19.50;;;6.80;99.90;;;;;;5035443;28;20214;-81
2022/11/29 11:06:02;;;;;;;38.30;20.13;;;6.80;99.90;;;;;;5032612;28;20216;-81
2022/11/29 11:08:31;;;;;;;32.53;18.77;;;6.80;99.90;;;;;;5034011;28;20333;-80
2022/11/29 11:10:59;;;;;;;35.27;20.83;;;6.90;99.90;;;;;;5038242;28;20236;-82
2022/11/29 11:13:30;;;;;;;34.53;20.70;;;6.90;99.90;;;;;;5032178;28;20207;-81
2022/11/29 11:15:59;;;;;;;33.90;20.17;;;6.90;99.90;;;;;;5027202;28;20196;-80
2022/11/29 11:18:29;;;;;;;37.03;21.63;;;6.90;99.90;;;;;;5033973;28;20306;-81
2022/11/29 11:20:58;;;;;;;36.03;22.07;;;6.90;99.90;;;;;;5034138;28;20295;-80
2022/11/29 11:23:28;;;;;;;31.00;19.43;;;6.90;99.90;;;;;;5034929;28;20290;-80
2022/11/29 11:26:00;;;;;;;37.47;21.03;;;6.90;99.90;;;;;;5030300;28;20825;-80
2022/11/29 11:28:30;;;;;;;34.77;20.77;;;6.90;99.90;;;;;;5028659;28;20228;-81
2022/11/29 11:31:00;;;;;;;34.87;20.53;;;6.90;99.90;;;;;;5034282;28;20653;-81
2022/11/29 11:33:28;;;;;;;37.40;22.20;;;7.00;99.90;;;;;;5033150;28;20207;-81
2022/11/29 11:36:05;;;;;;;34.93;21.27;;;7.10;99.90;;;;;;5030070;28;20246;-80
2022/11/29 11:38:32;;;;;;;40.93;22.33;;;6.80;99.90;;;;;;5036389;28;20234;-80
2022/11/29 11:41:06;;;;;;;36.07;20.50;;;6.90;99.90;;;;;;5035306;28;20212;-80
2022/11/29 11:43:34;;;;;;;35.73;21.60;;;6.80;99.90;;;;;;5035371;28;20196;-80
2022/11/29 11:46:01;;;;;;;36.57;20.97;;;6.90;99.90;;;;;;5035734;28;20715;-80
2022/11/29 11:48:29;;;;;;;36.30;21.27;;;6.90;99.90;;;;;;5025700;28;20223;-79
2022/11/29 11:50:59;;;;;;;35.90;20.43;;;6.90;99.90;;;;;;5028408;28;20199;-80
2022/11/29 11:53:29;;;;;;;34.20;20.83;;;6.90;99.90;;;;;;5025928;28;20199;-80
2022/11/29 11:55:59;;;;;;;35.30;20.20;;;6.80;99.90;;;;;;5029772;28;20203;-79
2022/11/29 11:58:29;;;;;;;34.97;21.00;;;6.80;99.90;;;;;;5032629;28;20223;-79
2022/11/29 12:00:58;;;;;;;40.20;23.97;;;6.80;99.90;;;;;;5033256;28;20629;-80
2022/11/29 12:03:45;;;;;;;35.17;20.50;;;6.90;99.90;;;;;;5027937;28;20586;-81
2022/11/29 12:06:28;;;;;;;36.57;20.63;;;6.80;99.90;;;;;;5023720;28;20223;-80
2022/11/29 12:08:59;;;;;;;33.80;19.43;;;6.80;99.90;;;;;;5033763;28;20220;-80
2022/11/29 12:11:27;;;;;;;33.87;19.53;;;6.80;99.90;;;;;;5029982;28;20202;-80
2022/11/29 12:13:58;;;;;;;36.13;19.93;;;6.70;99.90;;;;;;5029401;28;20208;-81
2022/11/29 12:16:33;;;;;;;34.73;19.43;;;6.80;99.90;;;;;;5034878;28;20194;-81
2022/11/29 12:19:07;;;;;;;36.63;21.37;;;6.90;99.90;;;;;;5037599;28;20309;-82
2022/11/29 12:21:39;;;;;;;38.00;21.17;;;6.90;99.90;;;;;;5037242;28;20207;-82
2022/11/29 12:24:16;;;;;;;38.90;21.10;;;6.90;99.90;;;;;;5033882;28;20246;-81
2022/11/29 12:26:43;;;;;;;36.57;21.27;;;7.00;99.90;;;;;;5035904;28;20207;-82
2022/11/29 12:29:14;;;;;;;36.97;20.53;;;7.00;99.90;;;;;;5037579;28;20226;-82
2022/11/29 12:31:54;;;;;;;35.73;20.80;;;7.00;99.90;;;;;;5039278;28;20212;-82
2022/11/29 12:34:39;;;;;;;35.40;19.77;;;6.90;99.90;;;;;;5036439;28;20711;-82
2022/11/29 12:37:15;;;;;;;35.47;21.00;;;7.10;99.90;;;;;;5034550;28;20210;-82
2022/11/29 12:39:49;;;;;;;33.63;19.77;;;6.90;99.90;;;;;;5034841;28;20219;-82
2022/11/29 12:42:26;;;;;;;35.80;21.43;;;6.90;99.90;;;;;;5034323;28;20536;-82
2022/11/29 12:45:00;;;;;;;37.87;21.23;;;6.90;99.90;;;;;;5033829;28;20281;-82
2022/11/29 12:47:41;;;;;;;38.17;21.60;;;7.00;99.90;;;;;;5033863;28;20207;-81
2022/11/29 12:50:19;;;;;;;36.60;20.87;;;7.00;99.90;;;;;;5035090;28;20310;-81
2022/11/29 12:52:52;;;;;;;37.07;21.53;;;6.90;99.90;;;;;;5035998;28;20200;-83
2022/11/29 12:55:24;;;;;;;36.03;20.10;;;6.80;99.90;;;;;;5034968;28;20204;-82
2022/11/29 12:57:59;;;;;;;37.27;20.87;;;6.90;99.90;;;;;;5035902;28;20207;-82
2022/11/29 13:00:32;;;;;;;36.70;19.40;;;6.90;99.90;;;;;;5031975;28;20221;-82
2022/11/29 13:03:07;;;;;;;33.20;19.30;;;6.90;99.90;;;;;;5034713;28;20714;-81
2022/11/29 13:05:50;;;;;;;34.30;20.30;;;6.80;99.90;;;;;;5033289;28;20238;-81
2022/11/29 13:08:31;;;;;;;35.00;20.47;;;6.90;99.90;;;;;;5034806;28;20706;-84
2022/11/29 13:11:07;;;;;;;35.57;20.17;;;6.80;99.90;;;;;;5035467;28;20582;-83
2022/11/29 13:13:40;;;;;;;36.60;19.70;;;6.70;99.90;;;;;;5032509;28;20203;-83
2022/11/29 13:16:29;;;;;;;32.17;18.87;;;6.80;99.90;;;;;;5037484;28;20206;-82